sensor_id;sensor_type;location;lat;lon;timestamp;temperature;humidity
59309;DHT22;48433;53.016;-2.260;2023-07-22T00:00:21;13.40;99.90
59309;DHT22;48433;53.016;-2.260;2023-07-22T00:02:49;13.40;99.90
59309;DHT22;48433;53.016;-2.260;2023-07-22T00:05:17;13.30;99.90
59309;DHT22;48433;53.016;-2.260;2023-07-22T00:07:50;13.40;99.90
59309;DHT22;48433;53.016;-2.260;2023-07-22T00:10:18;13.30;99.90
59309;DHT22;48433;53.016;-2.260;2023-07-22T00:12:46;13.30;99.90
59309;DHT22;48433;53.016;-2.260;2023-07-22T00:15:14;13.30;99.90
59309;DHT22;48433;53.016;-2.260;2023-07-22T00:17:41;13.40;99.90
59309;DHT22;48433;53.016;-2.260;2023-07-22T00:20:09;13.30;99.90
59309;DHT22;48433;53.016;-2.260;2023-07-22T00:22:38;13.30;99.90
59309;DHT22;48433;53.016;-2.260;2023-07-22T00:25:10;13.40;99.90
59309;DHT22;48433;53.016;-2.260;2023-07-22T00:27:41;13.40;99.90
59309;DHT22;48433;53.016;-2.260;2023-07-22T00:30:09;13.30;99.90
59309;DHT22;48433;53.016;-2.260;2023-07-22T00:32:38;13.40;99.90
59309;DHT22;48433;53.016;-2.260;2023-07-22T00:35:07;13.40;99.90
59309;DHT22;48433;53.016;-2.260;2023-07-22T00:37:34;13.40;99.90
59309;DHT22;48433;53.016;-2.260;2023-07-22T00:40:02;13.30;99.90
59309;DHT22;48433;53.016;-2.260;2023-07-22T00:42:39;13.30;99.90
59309;DHT22;48433;53.016;-2.260;2023-07-22T00:45:07;13.40;99.90
59309;DHT22;48433;53.016;-2.260;2023-07-22T00:47:36;13.40;99.90
59309;DHT22;48433;53.016;-2.260;2023-07-22T00:50:07;13.40;99.90
59309;DHT22;48433;53.016;-2.260;2023-07-22T00:52:35;13.40;99.90
59309;DHT22;48433;53.016;-2.260;2023-07-22T00:55:04;13.40;99.90
59309;DHT22;48433;53.016;-2.260;2023-07-22T00:57:33;13.40;99.90
59309;DHT22;48433;53.016;-2.260;2023-07-22T01:00:02;13.40;99.90
59309;DHT22;48433;53.016;-2.260;2023-07-22T01:02:31;13.40;99.90
59309;DHT22;48433;53.016;-2.260;2023-07-22T01:04:59;13.40;99.90
59309;DHT22;48433;53.016;-2.260;2023-07-22T01:07:27;13.40;99.90
59309;DHT22;48433;53.016;-2.260;2023-07-22T01:09:58;13.40;99.90
59309;DHT22;48433;53.016;-2.260;2023-07-22T01:14:54;13.30;99.90
59309;DHT22;48433;53.016;-2.260;2023-07-22T01:17:22;13.30;99.90
59309;DHT22;48433;53.016;-2.260;2023-07-22T01:19:50;13.20;99.90
59309;DHT22;48433;53.016;-2.260;2023-07-22T01:22:18;13.30;99.90
59309;DHT22;48433;53.016;-2.260;2023-07-22T01:24:46;13.20;99.90
59309;DHT22;48433;53.016;-2.260;2023-07-22T01:27:14;13.20;99.90
59309;DHT22;48433;53.016;-2.260;2023-07-22T01:29:42;13.20;99.90
59309;DHT22;48433;53.016;-2.260;2023-07-22T01:32:11;13.20;99.90
59309;DHT22;48433;53.016;-2.260;2023-07-22T01:34:38;13.20;99.90
59309;DHT22;48433;53.016;-2.260;2023-07-22T01:37:07;13.20;99.90
59309;DHT22;48433;53.016;-2.260;2023-07-22T01:39:35;13.20;99.90
59309;DHT22;48433;53.016;-2.260;2023-07-22T01:42:03;13.20;99.90
59309;DHT22;48433;53.016;-2.260;2023-07-22T01:44:31;13.20;99.90
59309;DHT22;48433;53.016;-2.260;2023-07-22T01:47:02;13.30;99.90
59309;DHT22;48433;53.016;-2.260;2023-07-22T01:49:30;13.30;99.90
59309;DHT22;48433;53.016;-2.260;2023-07-22T01:51:58;13.30;99.90
59309;DHT22;48433;53.016;-2.260;2023-07-22T01:54:25;13.20;99.90
59309;DHT22;48433;53.016;-2.260;2023-07-22T01:56:53;13.20;99.90
59309;DHT22;48433;53.016;-2.260;2023-07-22T01:59:21;13.30;99.90
59309;DHT22;48433;53.016;-2.260;2023-07-22T02:01:48;13.30;99.90
59309;DHT22;48433;53.016;-2.260;2023-07-22T02:04:16;13.30;99.90
59309;DHT22;48433;53.016;-2.260;2023-07-22T02:06:44;13.20;99.90
59309;DHT22;48433;53.016;-2.260;2023-07-22T02:09:12;13.30;99.90
59309;DHT22;48433;53.016;-2.260;2023-07-22T02:11:41;13.30;99.90
59309;DHT22;48433;53.016;-2.260;2023-07-22T02:14:08;13.30;99.90
59309;DHT22;48433;53.016;-2.260;2023-07-22T02:16:36;13.20;99.90
59309;DHT22;48433;53.016;-2.260;2023-07-22T02:19:05;13.30;99.90
59309;DHT22;48433;53.016;-2.260;2023-07-22T02:21:40;13.20;99.90
59309;DHT22;48433;53.016;-2.260;2023-07-22T02:24:08;13.20;99.90
59309;DHT22;48433;53.016;-2.260;2023-07-22T02:26:35;13.30;99.90
59309;DHT22;48433;53.016;-2.260;2023-07-22T02:29:03;13.20;99.90
59309;DHT22;48433;53.016;-2.260;2023-07-22T02:31:31;13.20;99.90
59309;DHT22;48433;53.016;-2.260;2023-07-22T02:33:58;13.20;99.90
59309;DHT22;48433;53.016;-2.260;2023-07-22T02:36:26;13.20;99.90
59309;DHT22;48433;53.016;-2.260;2023-07-22T02:38:54;13.10;99.90
59309;DHT22;48433;53.016;-2.260;2023-07-22T02:41:22;13.10;99.90
59309;DHT22;48433;53.016;-2.260;2023-07-22T02:43:50;13.10;99.90
59309;DHT22;48433;53.016;-2.260;2023-07-22T02:46:17;13.10;99.90
59309;DHT22;48433;53.016;-2.260;2023-07-22T02:48:45;13.10;99.90
59309;DHT22;48433;53.016;-2.260;2023-07-22T02:53:41;13.10;99.90
59309;DHT22;48433;53.016;-2.260;2023-07-22T02:56:08;13.10;99.90
59309;DHT22;48433;53.016;-2.260;2023-07-22T02:58:38;13.10;99.90
59309;DHT22;48433;53.016;-2.260;2023-07-22T03:01:06;13.10;99.90
59309;DHT22;48433;53.016;-2.260;2023-07-22T03:03:36;13.10;99.90
59309;DHT22;48433;53.016;-2.260;2023-07-22T03:06:04;13.10;99.90
59309;DHT22;48433;53.016;-2.260;2023-07-22T03:08:32;13.10;99.90
59309;DHT22;48433;53.016;-2.260;2023-07-22T03:10:59;13.10;99.90
59309;DHT22;48433;53.016;-2.260;2023-07-22T03:13:28;13.10;99.90
59309;DHT22;48433;53.016;-2.260;2023-07-22T03:15:58;13.00;99.90
59309;DHT22;48433;53.016;-2.260;2023-07-22T03:18:26;13.00;99.90
59309;DHT22;48433;53.016;-2.260;2023-07-22T03:20:53;13.00;99.90
59309;DHT22;48433;53.016;-2.260;2023-07-22T03:23:21;13.00;99.90
59309;DHT22;48433;53.016;-2.260;2023-07-22T03:25:49;13.00;99.90
59309;DHT22;48433;53.016;-2.260;2023-07-22T03:28:16;13.00;99.90
59309;DHT22;48433;53.016;-2.260;2023-07-22T03:30:44;13.00;99.90
59309;DHT22;48433;53.016;-2.260;2023-07-22T03:33:11;13.00;99.90
59309;DHT22;48433;53.016;-2.260;2023-07-22T03:35:39;13.00;99.90
59309;DHT22;48433;53.016;-2.260;2023-07-22T03:38:08;13.00;99.90
59309;DHT22;48433;53.016;-2.260;2023-07-22T03:40:36;13.00;99.90
59309;DHT22;48433;53.016;-2.260;2023-07-22T03:43:05;13.00;99.90
59309;DHT22;48433;53.016;-2.260;2023-07-22T03:45:33;13.00;99.90
59309;DHT22;48433;53.016;-2.260;2023-07-22T03:48:00;13.00;99.90
59309;DHT22;48433;53.016;-2.260;2023-07-22T03:52:56;13.00;99.90
59309;DHT22;48433;53.016;-2.260;2023-07-22T03:55:24;13.00;99.90
59309;DHT22;48433;53.016;-2.260;2023-07-22T03:57:52;13.00;99.90
59309;DHT22;48433;53.016;-2.260;2023-07-22T04:00:20;12.90;99.90
59309;DHT22;48433;53.016;-2.260;2023-07-22T04:02:49;13.00;99.90
59309;DHT22;48433;53.016;-2.260;2023-07-22T04:05:17;13.00;99.90
59309;DHT22;48433;53.016;-2.260;2023-07-22T04:07:45;12.90;99.90
59309;DHT22;48433;53.016;-2.260;2023-07-22T04:10:13;12.90;99.90
59309;DHT22;48433;53.016;-2.260;2023-07-22T04:12:40;12.90;99.90
59309;DHT22;48433;53.016;-2.260;2023-07-22T04:15:09;13.00;99.90
59309;DHT22;48433;53.016;-2.260;2023-07-22T04:17:37;12.90;99.90
59309;DHT22;48433;53.016;-2.260;2023-07-22T04:20:05;13.00;99.90
59309;DHT22;48433;53.016;-2.260;2023-07-22T04:22:35;13.00;99.90
59309;DHT22;48433;53.016;-2.260;2023-07-22T04:25:04;13.00;99.90
59309;DHT22;48433;53.016;-2.260;2023-07-22T04:27:32;12.90;99.90
59309;DHT22;48433;53.016;-2.260;2023-07-22T04:29:59;13.00;99.90
59309;DHT22;48433;53.016;-2.260;2023-07-22T04:32:27;13.00;99.90
59309;DHT22;48433;53.016;-2.260;2023-07-22T04:34:56;13.00;99.90
59309;DHT22;48433;53.016;-2.260;2023-07-22T04:37:23;13.00;99.90
59309;DHT22;48433;53.016;-2.260;2023-07-22T04:39:51;13.00;99.90
59309;DHT22;48433;53.016;-2.260;2023-07-22T04:42:19;13.00;99.90
59309;DHT22;48433;53.016;-2.260;2023-07-22T04:44:46;13.00;99.90
59309;DHT22;48433;53.016;-2.260;2023-07-22T04:47:14;13.10;99.90
59309;DHT22;48433;53.016;-2.260;2023-07-22T04:49:42;13.10;99.90
59309;DHT22;48433;53.016;-2.260;2023-07-22T04:52:09;13.10;99.90
59309;DHT22;48433;53.016;-2.260;2023-07-22T04:54:37;13.10;99.90
59309;DHT22;48433;53.016;-2.260;2023-07-22T04:57:05;13.10;99.90
59309;DHT22;48433;53.016;-2.260;2023-07-22T04:59:32;13.10;99.90
59309;DHT22;48433;53.016;-2.260;2023-07-22T05:02:00;13.10;99.90
59309;DHT22;48433;53.016;-2.260;2023-07-22T05:04:28;13.10;99.90
59309;DHT22;48433;53.016;-2.260;2023-07-22T05:06:55;13.10;99.90
59309;DHT22;48433;53.016;-2.260;2023-07-22T05:09:23;13.20;99.90
59309;DHT22;48433;53.016;-2.260;2023-07-22T05:11:50;13.20;99.90
59309;DHT22;48433;53.016;-2.260;2023-07-22T05:14:18;13.30;99.90
59309;DHT22;48433;53.016;-2.260;2023-07-22T05:16:46;13.20;99.90
59309;DHT22;48433;53.016;-2.260;2023-07-22T05:19:13;13.30;99.90
59309;DHT22;48433;53.016;-2.260;2023-07-22T05:21:41;13.30;99.90
59309;DHT22;48433;53.016;-2.260;2023-07-22T05:24:08;13.40;99.90
59309;DHT22;48433;53.016;-2.260;2023-07-22T05:26:36;13.30;99.90
59309;DHT22;48433;53.016;-2.260;2023-07-22T05:29:04;13.30;99.90
59309;DHT22;48433;53.016;-2.260;2023-07-22T05:31:31;13.40;99.90
59309;DHT22;48433;53.016;-2.260;2023-07-22T05:33:59;13.40;99.90
59309;DHT22;48433;53.016;-2.260;2023-07-22T05:36:27;13.40;99.90
59309;DHT22;48433;53.016;-2.260;2023-07-22T05:38:55;13.40;99.90
59309;DHT22;48433;53.016;-2.260;2023-07-22T05:41:23;13.50;99.90
59309;DHT22;48433;53.016;-2.260;2023-07-22T05:43:50;13.40;99.90
59309;DHT22;48433;53.016;-2.260;2023-07-22T05:46:18;13.50;99.90
59309;DHT22;48433;53.016;-2.260;2023-07-22T05:48:45;13.50;99.90
59309;DHT22;48433;53.016;-2.260;2023-07-22T05:53:42;13.50;99.90
59309;DHT22;48433;53.016;-2.260;2023-07-22T05:56:10;13.50;99.90
59309;DHT22;48433;53.016;-2.260;2023-07-22T05:58:38;13.50;99.90
59309;DHT22;48433;53.016;-2.260;2023-07-22T06:01:05;13.50;99.90
59309;DHT22;48433;53.016;-2.260;2023-07-22T06:03:33;13.40;99.90
59309;DHT22;48433;53.016;-2.260;2023-07-22T06:06:01;13.50;99.90
59309;DHT22;48433;53.016;-2.260;2023-07-22T06:08:28;13.40;99.90
59309;DHT22;48433;53.016;-2.260;2023-07-22T06:10:56;13.40;99.90
59309;DHT22;48433;53.016;-2.260;2023-07-22T06:13:24;13.40;99.90
59309;DHT22;48433;53.016;-2.260;2023-07-22T06:15:52;13.40;99.90
59309;DHT22;48433;53.016;-2.260;2023-07-22T06:18:19;13.40;99.90
59309;DHT22;48433;53.016;-2.260;2023-07-22T06:20:47;13.30;99.90
59309;DHT22;48433;53.016;-2.260;2023-07-22T06:23:15;13.30;99.90
59309;DHT22;48433;53.016;-2.260;2023-07-22T06:25:43;13.30;99.90
59309;DHT22;48433;53.016;-2.260;2023-07-22T06:28:10;13.30;99.90
59309;DHT22;48433;53.016;-2.260;2023-07-22T06:30:38;13.40;99.90
59309;DHT22;48433;53.016;-2.260;2023-07-22T06:33:05;13.30;99.90
59309;DHT22;48433;53.016;-2.260;2023-07-22T06:35:33;13.40;99.90
59309;DHT22;48433;53.016;-2.260;2023-07-22T06:38:01;13.40;99.90
59309;DHT22;48433;53.016;-2.260;2023-07-22T06:40:28;13.40;99.90
59309;DHT22;48433;53.016;-2.260;2023-07-22T06:42:56;13.30;99.90
59309;DHT22;48433;53.016;-2.260;2023-07-22T06:45:23;13.30;99.90
59309;DHT22;48433;53.016;-2.260;2023-07-22T06:47:51;13.30;99.90
59309;DHT22;48433;53.016;-2.260;2023-07-22T06:50:19;13.30;99.90
59309;DHT22;48433;53.016;-2.260;2023-07-22T06:52:46;13.30;99.90
59309;DHT22;48433;53.016;-2.260;2023-07-22T06:55:14;13.30;99.90
59309;DHT22;48433;53.016;-2.260;2023-07-22T06:57:42;13.30;99.90
59309;DHT22;48433;53.016;-2.260;2023-07-22T07:00:09;13.30;99.90
59309;DHT22;48433;53.016;-2.260;2023-07-22T07:02:37;13.30;99.90
59309;DHT22;48433;53.016;-2.260;2023-07-22T07:05:05;13.30;99.90
59309;DHT22;48433;53.016;-2.260;2023-07-22T07:07:33;13.30;99.90
59309;DHT22;48433;53.016;-2.260;2023-07-22T07:10:01;13.30;99.90
59309;DHT22;48433;53.016;-2.260;2023-07-22T07:12:28;13.30;99.90
59309;DHT22;48433;53.016;-2.260;2023-07-22T07:14:56;13.30;99.90
59309;DHT22;48433;53.016;-2.260;2023-07-22T07:17:23;13.30;99.90
59309;DHT22;48433;53.016;-2.260;2023-07-22T07:19:51;13.40;99.90
59309;DHT22;48433;53.016;-2.260;2023-07-22T07:22:19;13.40;99.90
59309;DHT22;48433;53.016;-2.260;2023-07-22T07:24:46;13.40;99.90
59309;DHT22;48433;53.016;-2.260;2023-07-22T07:27:14;13.50;99.90
59309;DHT22;48433;53.016;-2.260;2023-07-22T07:29:41;13.40;99.90
59309;DHT22;48433;53.016;-2.260;2023-07-22T07:32:21;13.40;99.90
59309;DHT22;48433;53.016;-2.260;2023-07-22T07:34:49;13.40;99.90
59309;DHT22;48433;53.016;-2.260;2023-07-22T07:37:16;13.40;99.90
59309;DHT22;48433;53.016;-2.260;2023-07-22T07:39:44;13.40;99.90
59309;DHT22;48433;53.016;-2.260;2023-07-22T07:42:12;13.30;99.90
59309;DHT22;48433;53.016;-2.260;2023-07-22T07:44:39;13.40;99.90
59309;DHT22;48433;53.016;-2.260;2023-07-22T07:47:07;13.40;99.90
59309;DHT22;48433;53.016;-2.260;2023-07-22T07:49:34;13.40;99.90
59309;DHT22;48433;53.016;-2.260;2023-07-22T07:52:03;13.40;99.90
59309;DHT22;48433;53.016;-2.260;2023-07-22T07:54:31;13.50;99.90
59309;DHT22;48433;53.016;-2.260;2023-07-22T07:56:59;13.40;99.90
59309;DHT22;48433;53.016;-2.260;2023-07-22T07:59:27;13.40;99.90
59309;DHT22;48433;53.016;-2.260;2023-07-22T08:01:55;13.50;99.90
59309;DHT22;48433;53.016;-2.260;2023-07-22T08:04:22;13.50;99.90
59309;DHT22;48433;53.016;-2.260;2023-07-22T08:06:50;13.50;99.90
59309;DHT22;48433;53.016;-2.260;2023-07-22T08:09:18;13.50;99.90
59309;DHT22;48433;53.016;-2.260;2023-07-22T08:11:47;13.50;99.90
59309;DHT22;48433;53.016;-2.260;2023-07-22T08:14:14;13.50;99.90
59309;DHT22;48433;53.016;-2.260;2023-07-22T08:16:42;13.50;99.90
59309;DHT22;48433;53.016;-2.260;2023-07-22T08:19:10;13.50;99.90
59309;DHT22;48433;53.016;-2.260;2023-07-22T08:21:37;13.50;99.90
59309;DHT22;48433;53.016;-2.260;2023-07-22T08:24:05;13.50;99.90
59309;DHT22;48433;53.016;-2.260;2023-07-22T08:26:33;13.50;99.90
59309;DHT22;48433;53.016;-2.260;2023-07-22T08:29:01;13.50;99.90
59309;DHT22;48433;53.016;-2.260;2023-07-22T08:31:29;13.40;99.90
59309;DHT22;48433;53.016;-2.260;2023-07-22T08:33:57;13.40;99.90
59309;DHT22;48433;53.016;-2.260;2023-07-22T08:36:25;13.40;99.90
59309;DHT22;48433;53.016;-2.260;2023-07-22T08:38:53;13.50;99.90
59309;DHT22;48433;53.016;-2.260;2023-07-22T08:41:21;13.50;99.90
59309;DHT22;48433;53.016;-2.260;2023-07-22T08:43:54;13.50;99.90
59309;DHT22;48433;53.016;-2.260;2023-07-22T08:46:28;13.50;99.90
59309;DHT22;48433;53.016;-2.260;2023-07-22T08:49:00;13.50;99.90
59309;DHT22;48433;53.016;-2.260;2023-07-22T08:51:29;13.60;99.90
59309;DHT22;48433;53.016;-2.260;2023-07-22T08:53:57;13.60;99.90
59309;DHT22;48433;53.016;-2.260;2023-07-22T08:56:38;13.60;99.90
59309;DHT22;48433;53.016;-2.260;2023-07-22T08:59:07;13.60;99.90
59309;DHT22;48433;53.016;-2.260;2023-07-22T09:01:37;13.70;99.90
59309;DHT22;48433;53.016;-2.260;2023-07-22T09:04:07;13.80;99.90
59309;DHT22;48433;53.016;-2.260;2023-07-22T09:06:36;13.70;99.90
59309;DHT22;48433;53.016;-2.260;2023-07-22T09:09:03;13.80;99.90
59309;DHT22;48433;53.016;-2.260;2023-07-22T09:11:35;13.80;99.90
59309;DHT22;48433;53.016;-2.260;2023-07-22T09:14:05;13.90;99.90
59309;DHT22;48433;53.016;-2.260;2023-07-22T09:16:34;13.90;99.90
59309;DHT22;48433;53.016;-2.260;2023-07-22T09:19:03;13.90;99.90
59309;DHT22;48433;53.016;-2.260;2023-07-22T09:21:32;13.90;99.90
59309;DHT22;48433;53.016;-2.260;2023-07-22T09:24:23;14.00;99.90
59309;DHT22;48433;53.016;-2.260;2023-07-22T09:26:52;14.00;99.90
59309;DHT22;48433;53.016;-2.260;2023-07-22T09:29:38;14.00;99.90
59309;DHT22;48433;53.016;-2.260;2023-07-22T09:32:07;14.10;99.90
59309;DHT22;48433;53.016;-2.260;2023-07-22T09:34:35;14.10;99.90
59309;DHT22;48433;53.016;-2.260;2023-07-22T09:37:03;14.10;99.90
59309;DHT22;48433;53.016;-2.260;2023-07-22T09:39:31;14.20;99.90
59309;DHT22;48433;53.016;-2.260;2023-07-22T09:41:59;14.20;99.90
59309;DHT22;48433;53.016;-2.260;2023-07-22T09:47:06;14.40;99.90
59309;DHT22;48433;53.016;-2.260;2023-07-22T09:49:40;14.50;99.90
59309;DHT22;48433;53.016;-2.260;2023-07-22T09:52:11;14.60;99.90
59309;DHT22;48433;53.016;-2.260;2023-07-22T09:54:48;14.70;99.90
59309;DHT22;48433;53.016;-2.260;2023-07-22T09:57:19;14.80;99.90
59309;DHT22;48433;53.016;-2.260;2023-07-22T09:59:49;14.80;99.90
59309;DHT22;48433;53.016;-2.260;2023-07-22T10:02:22;14.90;99.90
59309;DHT22;48433;53.016;-2.260;2023-07-22T10:04:51;15.00;99.90
59309;DHT22;48433;53.016;-2.260;2023-07-22T10:09:50;15.20;99.90
59309;DHT22;48433;53.016;-2.260;2023-07-22T10:17:15;15.30;99.90
59309;DHT22;48433;53.016;-2.260;2023-07-22T10:19:44;15.40;99.90
59309;DHT22;48433;53.016;-2.260;2023-07-22T10:27:09;15.40;99.90
59309;DHT22;48433;53.016;-2.260;2023-07-22T10:29:39;15.50;99.90
59309;DHT22;48433;53.016;-2.260;2023-07-22T10:32:07;15.50;99.90
59309;DHT22;48433;53.016;-2.260;2023-07-22T10:34:35;15.50;99.90
59309;DHT22;48433;53.016;-2.260;2023-07-22T10:37:03;15.50;99.90
59309;DHT22;48433;53.016;-2.260;2023-07-22T10:44:38;15.40;99.90
59309;DHT22;48433;53.016;-2.260;2023-07-22T10:47:07;15.60;99.90
59309;DHT22;48433;53.016;-2.260;2023-07-22T10:49:48;15.60;99.90
59309;DHT22;48433;53.016;-2.260;2023-07-22T10:52:45;15.60;99.90
59309;DHT22;48433;53.016;-2.260;2023-07-22T10:55:15;15.60;99.90
59309;DHT22;48433;53.016;-2.260;2023-07-22T10:57:50;15.70;99.90
59309;DHT22;48433;53.016;-2.260;2023-07-22T11:00:20;15.60;99.90
59309;DHT22;48433;53.016;-2.260;2023-07-22T11:03:08;15.60;99.90
59309;DHT22;48433;53.016;-2.260;2023-07-22T11:05:53;15.80;99.90
59309;DHT22;48433;53.016;-2.260;2023-07-22T11:08:39;15.80;99.90
59309;DHT22;48433;53.016;-2.260;2023-07-22T11:13:38;15.80;99.90
59309;DHT22;48433;53.016;-2.260;2023-07-22T11:18:40;15.80;99.90
59309;DHT22;48433;53.016;-2.260;2023-07-22T11:21:12;15.80;99.90
59309;DHT22;48433;53.016;-2.260;2023-07-22T11:33:40;16.10;99.90
59309;DHT22;48433;53.016;-2.260;2023-07-22T11:38:36;16.30;99.90
59309;DHT22;48433;53.016;-2.260;2023-07-22T11:41:05;16.40;99.90
59309;DHT22;48433;53.016;-2.260;2023-07-22T11:43:32;16.40;99.90
59309;DHT22;48433;53.016;-2.260;2023-07-22T11:46:00;16.40;99.90
59309;DHT22;48433;53.016;-2.260;2023-07-22T11:48:28;16.40;99.90
59309;DHT22;48433;53.016;-2.260;2023-07-22T11:50:59;16.40;99.90
59309;DHT22;48433;53.016;-2.260;2023-07-22T11:55:58;16.30;99.90
59309;DHT22;48433;53.016;-2.260;2023-07-22T12:01:21;16.30;99.90
59309;DHT22;48433;53.016;-2.260;2023-07-22T12:03:55;16.30;99.90
59309;DHT22;48433;53.016;-2.260;2023-07-22T12:06:25;16.20;99.90
59309;DHT22;48433;53.016;-2.260;2023-07-22T12:08:54;16.10;99.90
59309;DHT22;48433;53.016;-2.260;2023-07-22T12:11:23;16.20;99.90
59309;DHT22;48433;53.016;-2.260;2023-07-22T12:14:10;16.20;99.90
59309;DHT22;48433;53.016;-2.260;2023-07-22T12:16:42;16.20;99.90
59309;DHT22;48433;53.016;-2.260;2023-07-22T12:19:10;16.30;99.90
59309;DHT22;48433;53.016;-2.260;2023-07-22T12:21:37;16.20;99.90
59309;DHT22;48433;53.016;-2.260;2023-07-22T12:24:05;16.20;99.90
59309;DHT22;48433;53.016;-2.260;2023-07-22T12:26:33;16.30;99.90
59309;DHT22;48433;53.016;-2.260;2023-07-22T12:29:00;16.20;99.90
59309;DHT22;48433;53.016;-2.260;2023-07-22T12:31:28;16.10;99.90
59309;DHT22;48433;53.016;-2.260;2023-07-22T12:33:56;16.20;99.90
59309;DHT22;48433;53.016;-2.260;2023-07-22T12:36:24;16.10;99.90
59309;DHT22;48433;53.016;-2.260;2023-07-22T12:38:52;16.10;99.90
59309;DHT22;48433;53.016;-2.260;2023-07-22T12:41:20;16.20;99.90
59309;DHT22;48433;53.016;-2.260;2023-07-22T12:43:47;16.30;99.90
59309;DHT22;48433;53.016;-2.260;2023-07-22T12:46:16;16.30;99.90
59309;DHT22;48433;53.016;-2.260;2023-07-22T12:51:12;16.40;99.90
59309;DHT22;48433;53.016;-2.260;2023-07-22T12:53:41;16.40;99.90
59309;DHT22;48433;53.016;-2.260;2023-07-22T12:56:08;16.40;99.90
59309;DHT22;48433;53.016;-2.260;2023-07-22T12:58:36;16.40;99.90
59309;DHT22;48433;53.016;-2.260;2023-07-22T13:01:03;16.40;99.90
59309;DHT22;48433;53.016;-2.260;2023-07-22T13:03:31;16.40;99.90
59309;DHT22;48433;53.016;-2.260;2023-07-22T13:05:59;16.30;99.90
59309;DHT22;48433;53.016;-2.260;2023-07-22T13:08:26;16.30;99.90
59309;DHT22;48433;53.016;-2.260;2023-07-22T13:10:54;16.40;99.90
59309;DHT22;48433;53.016;-2.260;2023-07-22T13:13:21;16.40;99.90
59309;DHT22;48433;53.016;-2.260;2023-07-22T13:15:49;16.40;99.90
59309;DHT22;48433;53.016;-2.260;2023-07-22T13:18:17;16.40;99.90
59309;DHT22;48433;53.016;-2.260;2023-07-22T13:23:23;16.40;99.90
59309;DHT22;48433;53.016;-2.260;2023-07-22T13:25:51;16.40;99.90
59309;DHT22;48433;53.016;-2.260;2023-07-22T13:28:18;16.40;99.90
59309;DHT22;48433;53.016;-2.260;2023-07-22T13:30:46;16.30;99.90
59309;DHT22;48433;53.016;-2.260;2023-07-22T13:33:13;16.20;99.90
59309;DHT22;48433;53.016;-2.260;2023-07-22T13:35:41;16.10;99.90
59309;DHT22;48433;53.016;-2.260;2023-07-22T13:38:09;16.10;99.90
59309;DHT22;48433;53.016;-2.260;2023-07-22T13:40:36;16.10;99.90
59309;DHT22;48433;53.016;-2.260;2023-07-22T13:43:04;16.10;99.90
59309;DHT22;48433;53.016;-2.260;2023-07-22T13:48:00;16.10;99.90
59309;DHT22;48433;53.016;-2.260;2023-07-22T13:50:28;16.10;99.90
59309;DHT22;48433;53.016;-2.260;2023-07-22T13:52:55;16.20;99.90
59309;DHT22;48433;53.016;-2.260;2023-07-22T13:55:23;16.20;99.90
59309;DHT22;48433;53.016;-2.260;2023-07-22T13:57:51;16.20;99.90
59309;DHT22;48433;53.016;-2.260;2023-07-22T14:00:18;16.30;99.90
59309;DHT22;48433;53.016;-2.260;2023-07-22T14:02:46;16.30;99.90
59309;DHT22;48433;53.016;-2.260;2023-07-22T14:05:14;16.40;99.90
59309;DHT22;48433;53.016;-2.260;2023-07-22T14:07:41;16.40;99.90
59309;DHT22;48433;53.016;-2.260;2023-07-22T14:10:09;16.50;99.90
59309;DHT22;48433;53.016;-2.260;2023-07-22T14:12:37;16.60;99.90
59309;DHT22;48433;53.016;-2.260;2023-07-22T14:15:05;16.60;99.90
59309;DHT22;48433;53.016;-2.260;2023-07-22T14:17:34;16.60;99.90
59309;DHT22;48433;53.016;-2.260;2023-07-22T14:20:02;16.70;99.90
59309;DHT22;48433;53.016;-2.260;2023-07-22T14:22:32;16.70;99.90
59309;DHT22;48433;53.016;-2.260;2023-07-22T14:27:27;16.80;99.90
59309;DHT22;48433;53.016;-2.260;2023-07-22T14:29:55;16.90;99.90
59309;DHT22;48433;53.016;-2.260;2023-07-22T14:32:23;16.90;99.90
59309;DHT22;48433;53.016;-2.260;2023-07-22T14:34:50;16.90;99.90
59309;DHT22;48433;53.016;-2.260;2023-07-22T14:37:18;16.90;99.90
59309;DHT22;48433;53.016;-2.260;2023-07-22T14:39:46;16.90;99.90
59309;DHT22;48433;53.016;-2.260;2023-07-22T14:42:14;16.90;99.90
59309;DHT22;48433;53.016;-2.260;2023-07-22T14:44:41;16.90;99.90
59309;DHT22;48433;53.016;-2.260;2023-07-22T14:47:09;16.90;99.90
59309;DHT22;48433;53.016;-2.260;2023-07-22T14:49:37;16.80;99.90
59309;DHT22;48433;53.016;-2.260;2023-07-22T14:52:04;16.80;99.90
59309;DHT22;48433;53.016;-2.260;2023-07-22T14:54:33;16.80;99.90
59309;DHT22;48433;53.016;-2.260;2023-07-22T14:57:01;16.70;99.90
59309;DHT22;48433;53.016;-2.260;2023-07-22T14:59:28;16.70;99.90
59309;DHT22;48433;53.016;-2.260;2023-07-22T15:01:56;16.70;99.90
59309;DHT22;48433;53.016;-2.260;2023-07-22T15:04:25;16.70;99.90
59309;DHT22;48433;53.016;-2.260;2023-07-22T15:06:53;16.70;99.90
59309;DHT22;48433;53.016;-2.260;2023-07-22T15:09:20;16.70;99.90
59309;DHT22;48433;53.016;-2.260;2023-07-22T15:11:48;16.80;99.90
59309;DHT22;48433;53.016;-2.260;2023-07-22T15:14:15;16.80;99.90
59309;DHT22;48433;53.016;-2.260;2023-07-22T15:16:43;16.80;99.90
59309;DHT22;48433;53.016;-2.260;2023-07-22T15:19:11;16.80;99.90
59309;DHT22;48433;53.016;-2.260;2023-07-22T15:24:06;16.80;99.90
59309;DHT22;48433;53.016;-2.260;2023-07-22T15:26:34;16.80;99.90
59309;DHT22;48433;53.016;-2.260;2023-07-22T15:29:02;16.80;99.90
59309;DHT22;48433;53.016;-2.260;2023-07-22T15:31:30;16.80;99.90
59309;DHT22;48433;53.016;-2.260;2023-07-22T15:33:57;16.80;99.90
59309;DHT22;48433;53.016;-2.260;2023-07-22T15:36:25;16.80;99.90
59309;DHT22;48433;53.016;-2.260;2023-07-22T15:38:52;16.90;99.90
59309;DHT22;48433;53.016;-2.260;2023-07-22T15:41:21;17.00;99.90
59309;DHT22;48433;53.016;-2.260;2023-07-22T15:43:49;17.00;99.90
59309;DHT22;48433;53.016;-2.260;2023-07-22T15:46:16;17.10;99.90
59309;DHT22;48433;53.016;-2.260;2023-07-22T15:48:44;17.20;99.90
59309;DHT22;48433;53.016;-2.260;2023-07-22T15:51:12;17.20;99.90
59309;DHT22;48433;53.016;-2.260;2023-07-22T15:53:39;17.20;99.90
59309;DHT22;48433;53.016;-2.260;2023-07-22T15:56:07;17.30;99.90
59309;DHT22;48433;53.016;-2.260;2023-07-22T15:58:35;17.40;99.90
59309;DHT22;48433;53.016;-2.260;2023-07-22T16:01:04;17.40;99.90
59309;DHT22;48433;53.016;-2.260;2023-07-22T16:03:32;17.50;99.90
59309;DHT22;48433;53.016;-2.260;2023-07-22T16:05:59;17.50;99.90
59309;DHT22;48433;53.016;-2.260;2023-07-22T16:08:27;17.50;99.90
59309;DHT22;48433;53.016;-2.260;2023-07-22T16:10:55;17.50;99.90
59309;DHT22;48433;53.016;-2.260;2023-07-22T16:13:23;17.50;99.90
59309;DHT22;48433;53.016;-2.260;2023-07-22T16:15:51;17.60;99.90
59309;DHT22;48433;53.016;-2.260;2023-07-22T16:20:46;17.60;99.90
59309;DHT22;48433;53.016;-2.260;2023-07-22T16:23:14;17.60;99.90
59309;DHT22;48433;53.016;-2.260;2023-07-22T16:25:42;17.60;99.90
59309;DHT22;48433;53.016;-2.260;2023-07-22T16:28:09;17.60;99.90
59309;DHT22;48433;53.016;-2.260;2023-07-22T16:30:37;17.60;99.90